South Franklin, Vermont
Current Conditions -  °F | °C
As of 4:35 PM on Saturday 25 Oct 2014 (Local Time) from KFSO Reporting Station
Broken Clouds Broken Clouds  
Wind Chill: 13°   Ceiling: 6500
Heat Index: 13°   Visibility: 10mi
Dew Point:   Wind: 6mph
Humidity: 63%   Direction: 190°S
Pressure: 29.53"   Gusts: NA
Location:  44.8764°N, 72.758°W
Report Text: KFSO 252035Z AUTO 19005KT 10SM SCT049 BKN065 BKN075 13/06 A2953 RMK AO2 T01310061
Loading
Personal Weather Stations






























Interactive Weather Map
Tropical Storm Tracking
New forecast layout! Learn more

10-Day Weather Forecast

Advertisements
Track Severe Weather on mobile